Time;durP1;ratioP1;P1;durP2;ratioP2;P2;SDS_P1;SDS_P2;PMS_P1;PMS_P2;Temp;Humidity;BMP_temperature;BMP_pressure;BME280_temperature;BME280_humidity;BME280_pressure;Samples;Min_cycle;Max_cycle;Signal;HPM_P1;HPM_P2
2022/11/10 00:01:47;;;;;;;;;13.00;13.00;;;;;;;;5012932;28;8795;-70
2022/11/10 00:04:12;;;;;;;;;16.25;14.50;;;;;;;;5012939;28;8802;-69
2022/11/10 00:06:39;;;;;;;;;16.00;14.50;;;;;;;;5012907;28;8878;-71
2022/11/10 00:09:05;;;;;;;;;17.25;14.50;;;;;;;;5012898;28;9544;-71
2022/11/10 00:11:31;;;;;;;;;18.25;16.25;;;;;;;;5012768;28;11501;-70
2022/11/10 00:19:24;;;;;;;;;16.25;14.00;;;;;;;;5012645;28;11460;-70
2022/11/10 00:21:49;;;;;;;;;16.75;14.00;;;;;;;;5011050;28;11511;-70
2022/11/10 00:24:14;;;;;;;;;19.00;13.50;;;;;;;;5013012;28;8976;-70
2022/11/10 00:26:40;;;;;;;;;14.25;14.25;;;;;;;;5012829;28;8802;-71
2022/11/10 00:29:05;;;;;;;;;15.75;14.75;;;;;;;;5012186;28;8782;-71
2022/11/10 00:31:30;;;;;;;;;14.00;13.00;;;;;;;;5012091;28;8948;-71
2022/11/10 00:33:56;;;;;;;;;13.00;11.50;;;;;;;;5012553;28;8791;-69
2022/11/10 00:36:22;;;;;;;;;16.25;12.00;;;;;;;;5012485;28;8806;-71
2022/11/10 00:38:49;;;;;;;;;12.00;12.00;;;;;;;;5012405;28;11478;-70
2022/11/10 00:41:14;;;;;;;;;12.00;9.00;;;;;;;;5012507;28;8782;-70
2022/11/10 00:43:39;;;;;;;;;14.00;11.50;;;;;;;;5012133;28;11502;-70
2022/11/10 00:46:05;;;;;;;;;12.25;12.25;;;;;;;;5012278;28;8810;-70
2022/11/10 00:48:30;;;;;;;;;14.00;12.00;;;;;;;;5012299;28;8863;-69
2022/11/10 00:50:56;;;;;;;;;11.75;11.00;;;;;;;;5011774;28;8786;-69
2022/11/10 00:53:21;;;;;;;;;11.50;11.00;;;;;;;;5012246;28;8836;-70
2022/11/10 00:55:47;;;;;;;;;10.00;8.50;;;;;;;;5011903;28;9595;-70
2022/11/10 00:58:13;;;;;;;;;15.50;13.25;;;;;;;;5011626;28;8779;-71
2022/11/10 01:00:38;;;;;;;;;12.75;12.00;;;;;;;;5011733;28;11239;-70
2022/11/10 01:03:04;;;;;;;;;9.75;9.50;;;;;;;;5011945;28;8802;-70
2022/11/10 01:05:29;;;;;;;;;7.50;6.50;;;;;;;;5011772;28;8802;-70
2022/11/10 01:07:56;;;;;;;;;11.75;9.50;;;;;;;;5011203;28;8818;-71
2022/11/10 01:10:21;;;;;;;;;12.00;10.00;;;;;;;;5011443;28;8793;-70
2022/11/10 01:12:47;;;;;;;;;12.50;10.50;;;;;;;;5011579;28;11468;-70
2022/11/10 01:15:12;;;;;;;;;11.00;10.00;;;;;;;;5011524;28;8803;-71
2022/11/10 01:17:37;;;;;;;;;12.00;12.00;;;;;;;;5011651;28;9587;-70
2022/11/10 01:20:03;;;;;;;;;12.25;12.25;;;;;;;;5011584;28;8961;-70
2022/11/10 01:22:29;;;;;;;;;13.50;12.00;;;;;;;;5032642;28;8822;-69
2022/11/10 01:24:54;;;;;;;;;16.75;12.25;;;;;;;;5013055;28;8907;-69
2022/11/10 01:27:19;;;;;;;;;14.00;13.25;;;;;;;;5012080;28;8843;-69
2022/11/10 01:29:45;;;;;;;;;15.25;14.25;;;;;;;;5011124;28;9591;-69
2022/11/10 01:32:10;;;;;;;;;13.75;13.00;;;;;;;;5011245;28;9567;-69
2022/11/10 01:34:35;;;;;;;;;16.50;14.00;;;;;;;;5010997;28;8786;-69
2022/11/10 01:37:01;;;;;;;;;15.75;13.50;;;;;;;;5011065;28;8833;-69
2022/11/10 01:39:26;;;;;;;;;13.25;13.25;;;;;;;;5010914;28;8794;-69
2022/11/10 01:41:52;;;;;;;;;15.50;13.00;;;;;;;;5010717;28;8795;-70
2022/11/10 01:44:19;;;;;;;;;12.25;11.75;;;;;;;;5010671;28;8825;-69
2022/11/10 01:46:44;;;;;;;;;12.75;12.00;;;;;;;;5011205;28;8790;-69
2022/11/10 01:49:11;;;;;;;;;8.50;8.50;;;;;;;;5010974;28;11464;-69
2022/11/10 01:51:36;;;;;;;;;16.75;16.00;;;;;;;;5011039;28;8790;-69
2022/11/10 01:54:12;;;;;;;;;12.00;11.75;;;;;;;;5010715;28;11464;-70
2022/11/10 01:56:41;;;;;;;;;18.00;16.00;;;;;;;;5011011;28;9654;-69
2022/11/10 01:59:09;;;;;;;;;20.75;19.50;;;;;;;;5010450;28;11491;-69
2022/11/10 02:01:35;;;;;;;;;21.50;20.00;;;;;;;;5010189;28;11530;-69
2022/11/10 02:04:09;;;;;;;;;19.75;18.75;;;;;;;;5010573;28;12209;-69
2022/11/10 02:06:39;;;;;;;;;17.00;16.00;;;;;;;;5010805;28;8806;-69
2022/11/10 02:09:04;;;;;;;;;22.25;18.50;;;;;;;;5010519;28;11584;-70
2022/11/10 02:11:30;;;;;;;;;25.50;23.75;;;;;;;;5010487;28;12401;-70
2022/11/10 02:13:56;;;;;;;;;19.75;19.75;;;;;;;;5025540;28;8833;-70
2022/11/10 02:16:22;;;;;;;;;18.25;17.25;;;;;;;;5010370;28;12188;-69
2022/11/10 02:18:47;;;;;;;;;16.50;15.00;;;;;;;;5010538;28;8825;-69
2022/11/10 02:21:15;;;;;;;;;21.00;16.00;;;;;;;;5009095;28;8803;-69
2022/11/10 02:23:41;;;;;;;;;20.50;18.25;;;;;;;;5010546;28;8811;-68
2022/11/10 02:26:06;;;;;;;;;20.75;19.50;;;;;;;;5010238;28;11496;-69
2022/11/10 02:28:32;;;;;;;;;21.00;20.00;;;;;;;;5010151;28;8810;-69
2022/11/10 02:30:57;;;;;;;;;19.00;18.50;;;;;;;;5009983;28;8782;-70
2022/11/10 02:33:23;;;;;;;;;19.75;18.25;;;;;;;;5010045;28;11515;-69
2022/11/10 02:35:48;;;;;;;;;22.25;19.25;;;;;;;;5009989;28;8805;-69
2022/11/10 02:38:13;;;;;;;;;25.75;19.00;;;;;;;;5009434;28;8799;-70
2022/11/10 02:40:39;;;;;;;;;21.25;16.00;;;;;;;;5010005;28;8798;-69
2022/11/10 02:43:07;;;;;;;;;22.25;21.25;;;;;;;;5009715;28;8945;-70
2022/11/10 02:45:33;;;;;;;;;23.25;22.00;;;;;;;;5009409;28;8822;-70
2022/11/10 02:47:58;;;;;;;;;19.00;17.75;;;;;;;;5024655;28;11654;-70
2022/11/10 02:50:23;;;;;;;;;20.75;18.50;;;;;;;;5009728;28;8794;-70
2022/11/10 02:52:48;;;;;;;;;16.50;16.25;;;;;;;;5009745;28;8806;-69
2022/11/10 02:55:14;;;;;;;;;21.50;20.75;;;;;;;;5009925;28;8794;-70
2022/11/10 02:57:39;;;;;;;;;21.00;17.50;;;;;;;;5009334;28;8826;-69
2022/11/10 03:00:05;;;;;;;;;18.00;16.75;;;;;;;;5009692;28;8902;-70
2022/11/10 03:02:30;;;;;;;;;20.00;18.75;;;;;;;;5008532;28;8798;-69
2022/11/10 03:04:56;;;;;;;;;23.50;21.00;;;;;;;;5009646;28;12810;-69
2022/11/10 03:07:21;;;;;;;;;19.50;18.50;;;;;;;;5009647;28;8813;-69
2022/11/10 03:09:46;;;;;;;;;20.50;19.25;;;;;;;;5009636;28;9541;-69
2022/11/10 03:12:12;;;;;;;;;21.00;21.00;;;;;;;;5009468;28;8793;-69
2022/11/10 03:14:37;;;;;;;;;1.00;1.00;;;;;;;;5009393;28;8818;-69
2022/11/10 03:17:02;;;;;;;;;25.75;21.50;;;;;;;;5007665;28;8834;-69
2022/11/10 03:19:27;;;;;;;;;24.00;23.50;;;;;;;;5009502;28;8809;-69
2022/11/10 03:21:53;;;;;;;;;27.50;26.00;;;;;;;;5009572;28;9529;-69
2022/11/10 03:24:18;;;;;;;;;28.50;25.50;;;;;;;;5009759;28;8826;-69
2022/11/10 03:26:43;;;;;;;;;27.75;26.25;;;;;;;;5009397;28;8775;-69
2022/11/10 03:29:09;;;;;;;;;32.25;25.75;;;;;;;;5009170;28;8798;-69
2022/11/10 03:31:34;;;;;;;;;29.50;26.00;;;;;;;;5008687;28;8880;-69
2022/11/10 03:33:59;;;;;;;;;30.50;28.00;;;;;;;;5009212;28;8845;-69
2022/11/10 03:36:25;;;;;;;;;28.00;22.75;;;;;;;;5009306;28;8841;-69
2022/11/10 03:38:50;;;;;;;;;27.50;26.25;;;;;;;;5010013;28;8925;-70
2022/11/10 03:41:15;;;;;;;;;29.00;26.00;;;;;;;;5015884;28;8787;-69
2022/11/10 03:43:41;;;;;;;;;28.00;27.00;;;;;;;;5009412;28;8806;-70
2022/11/10 03:46:07;;;;;;;;;28.75;25.25;;;;;;;;5009280;28;8860;-70
2022/11/10 03:48:32;;;;;;;;;26.75;26.75;;;;;;;;5008820;28;8791;-69
2022/11/10 03:50:57;;;;;;;;;29.25;26.25;;;;;;;;5009237;28;11745;-70
2022/11/10 03:53:23;;;;;;;;;28.00;25.50;;;;;;;;5009183;28;8953;-69
2022/11/10 03:55:48;;;;;;;;;26.25;24.25;;;;;;;;5009061;28;8830;-70
2022/11/10 03:58:14;;;;;;;;;31.25;28.75;;;;;;;;5009122;28;8791;-70
2022/11/10 04:00:39;;;;;;;;;26.00;24.25;;;;;;;;5007563;28;8922;-69
2022/11/10 04:03:04;;;;;;;;;27.50;26.50;;;;;;;;5009172;28;9618;-70
2022/11/10 04:10:59;;;;;;;;;21.75;20.75;;;;;;;;5008998;28;11544;-70
2022/11/10 04:16:08;;;;;;;;;24.25;23.75;;;;;;;;5009069;28;8830;-70
2022/11/10 04:18:33;;;;;;;;;17.75;16.75;;;;;;;;5008923;28;11614;-69
2022/11/10 04:21:00;;;;;;;;;31.50;25.50;;;;;;;;5009070;28;8803;-70
2022/11/10 04:23:26;;;;;;;;;27.75;25.75;;;;;;;;5009362;28;8937;-70
2022/11/10 04:28:44;;;;;;;;;26.00;21.00;;;;;;;;5008633;28;11664;-70
2022/11/10 04:31:09;;;;;;;;;27.25;22.00;;;;;;;;5008905;28;11493;-70
2022/11/10 04:33:35;;;;;;;;;24.00;21.50;;;;;;;;5008815;28;12381;-70
2022/11/10 04:36:00;;;;;;;;;26.00;24.00;;;;;;;;5008762;28;9004;-70
2022/11/10 04:38:25;;;;;;;;;23.00;19.25;;;;;;;;5008919;28;8806;-70
2022/11/10 04:40:51;;;;;;;;;21.25;21.00;;;;;;;;5008812;28;8810;-70
2022/11/10 04:43:16;;;;;;;;;22.75;21.75;;;;;;;;5008399;28;8828;-70
2022/11/10 04:45:41;;;;;;;;;23.50;22.00;;;;;;;;5012517;28;8806;-70
2022/11/10 04:48:07;;;;;;;;;21.25;20.50;;;;;;;;5012382;28;8864;-70
2022/11/10 04:50:33;;;;;;;;;21.75;20.25;;;;;;;;5012338;28;8848;-70
2022/11/10 04:52:58;;;;;;;;;22.00;20.75;;;;;;;;5012605;28;8896;-69
2022/11/10 04:55:23;;;;;;;;;22.25;19.75;;;;;;;;5012239;28;8810;-70
2022/11/10 04:57:48;;;;;;;;;24.50;22.00;;;;;;;;5012137;28;8818;-70
2022/11/10 05:00:14;;;;;;;;;20.00;18.00;;;;;;;;5011485;28;8908;-69
2022/11/10 05:02:39;;;;;;;;;17.50;16.50;;;;;;;;5012029;28;8799;-70
2022/11/10 05:05:05;;;;;;;;;26.00;23.25;;;;;;;;5012102;28;8830;-70
2022/11/10 05:07:30;;;;;;;;;19.50;19.50;;;;;;;;5012176;28;8876;-70
2022/11/10 05:09:55;;;;;;;;;21.00;17.50;;;;;;;;5011963;28;8889;-70
2022/11/10 05:12:20;;;;;;;;;21.25;17.25;;;;;;;;5011716;28;8790;-69
2022/11/10 05:14:46;;;;;;;;;26.00;20.00;;;;;;;;5011464;28;8795;-70
2022/11/10 05:17:11;;;;;;;;;21.00;18.50;;;;;;;;5011672;28;8833;-69
2022/11/10 05:19:36;;;;;;;;;21.75;20.50;;;;;;;;5011109;28;8873;-70
2022/11/10 05:22:01;;;;;;;;;20.00;19.25;;;;;;;;5011420;28;8833;-70
2022/11/10 05:24:27;;;;;;;;;21.25;20.00;;;;;;;;5011506;28;8818;-70
2022/11/10 05:26:52;;;;;;;;;18.75;17.00;;;;;;;;5011398;28;8806;-70
2022/11/10 05:29:17;;;;;;;;;20.75;19.25;;;;;;;;5009141;28;8834;-70
2022/11/10 05:31:42;;;;;;;;;20.00;16.75;;;;;;;;5011292;28;8771;-70
2022/11/10 05:34:08;;;;;;;;;21.75;20.25;;;;;;;;5011173;28;8794;-71
2022/11/10 05:36:33;;;;;;;;;22.00;20.00;;;;;;;;5010713;28;8818;-70
2022/11/10 05:39:01;;;;;;;;;24.25;21.50;;;;;;;;5011221;28;8937;-70
2022/11/10 05:41:27;;;;;;;;;35.00;31.00;;;;;;;;5010974;28;8941;-69
2022/11/10 05:43:52;;;;;;;;;30.75;29.75;;;;;;;;5010778;28;11577;-70
2022/11/10 05:46:17;;;;;;;;;26.00;22.00;;;;;;;;5011211;28;8807;-69
2022/11/10 05:48:43;;;;;;;;;20.00;19.00;;;;;;;;5009497;28;8838;-70
2022/11/10 05:51:08;;;;;;;;;27.75;23.75;;;;;;;;5010942;28;8783;-69
2022/11/10 05:53:33;;;;;;;;;25.00;22.00;;;;;;;;5010943;28;8913;-70
2022/11/10 05:55:58;;;;;;;;;34.25;33.00;;;;;;;;5010389;28;9583;-70
2022/11/10 05:58:24;;;;;;;;;22.75;21.00;;;;;;;;5015513;28;8818;-70
2022/11/10 06:00:49;;;;;;;;;29.00;22.25;;;;;;;;5014058;28;8818;-70
2022/11/10 06:03:16;;;;;;;;;28.25;27.00;;;;;;;;5010983;28;8814;-69
2022/11/10 06:05:41;;;;;;;;;26.25;22.50;;;;;;;;5010890;28;9894;-69
2022/11/10 06:08:07;;;;;;;;;25.25;24.75;;;;;;;;5010489;28;11530;-69
2022/11/10 06:10:33;;;;;;;;;25.50;22.50;;;;;;;;4998110;28;8801;-69
2022/11/10 06:12:58;;;;;;;;;6.50;3.00;;;;;;;;4990704;28;8809;-69
2022/11/10 06:15:24;;;;;;;;;25.25;23.00;;;;;;;;5001726;28;8830;-70
2022/11/10 06:17:49;;;;;;;;;24.50;20.75;;;;;;;;5010326;28;8841;-69
2022/11/10 06:20:18;;;;;;;;;31.00;25.50;;;;;;;;5010484;28;8802;-70
2022/11/10 06:22:49;;;;;;;;;26.00;24.00;;;;;;;;5028010;23;8815;-71
2022/11/10 06:25:15;;;;;;;;;22.75;22.75;;;;;;;;5011031;28;11560;-71
2022/11/10 06:27:43;;;;;;;;;26.25;22.75;;;;;;;;5011919;28;11561;-71
2022/11/10 06:30:09;;;;;;;;;21.50;20.75;;;;;;;;5010848;28;8826;-72
2022/11/10 06:32:34;;;;;;;;;25.75;23.75;;;;;;;;5009148;28;11559;-73
2022/11/10 06:34:59;;;;;;;;;28.25;25.75;;;;;;;;5009647;28;8806;-70
2022/11/10 06:37:25;;;;;;;;;29.50;26.75;;;;;;;;5009604;28;8822;-71
2022/11/10 06:39:50;;;;;;;;;30.00;28.25;;;;;;;;5010054;28;8787;-71
2022/11/10 06:42:15;;;;;;;;;34.50;25.50;;;;;;;;5009644;28;8802;-73
2022/11/10 06:44:41;;;;;;;;;29.50;27.00;;;;;;;;5008865;28;8940;-72
2022/11/10 06:47:06;;;;;;;;;32.25;27.00;;;;;;;;5030208;28;8834;-73
2022/11/10 06:49:31;;;;;;;;;27.75;27.50;;;;;;;;5021473;28;8813;-73
2022/11/10 06:51:56;;;;;;;;;28.50;26.00;;;;;;;;5011473;28;8948;-78
2022/11/10 06:54:22;;;;;;;;;34.25;30.00;;;;;;;;5005187;28;8871;-75
2022/11/10 06:56:47;;;;;;;;;31.50;26.25;;;;;;;;5000808;28;8853;-74
2022/11/10 06:59:12;;;;;;;;;31.50;29.50;;;;;;;;4999347;28;8789;-78
2022/11/10 07:01:38;;;;;;;;;39.75;36.00;;;;;;;;4999395;28;8787;-78
2022/11/10 07:04:03;;;;;;;;;40.50;37.25;;;;;;;;5001138;28;8778;-80
2022/11/10 07:06:29;;;;;;;;;45.25;40.00;;;;;;;;4991443;28;8841;-75
2022/11/10 07:08:54;;;;;;;;;38.75;37.25;;;;;;;;4991329;28;8800;-75
2022/11/10 07:11:19;;;;;;;;;34.00;33.00;;;;;;;;4991298;28;8788;-75
2022/11/10 07:13:44;;;;;;;;;33.25;30.75;;;;;;;;4991018;28;8910;-76
2022/11/10 07:16:21;;;;;;;;;42.50;37.00;;;;;;;;5006096;28;8830;-75
2022/11/10 07:18:47;;;;;;;;;36.75;35.25;;;;;;;;5010958;28;8814;-80
2022/11/10 07:21:13;;;;;;;;;35.00;32.00;;;;;;;;5009668;28;11736;-75
2022/11/10 07:23:38;;;;;;;;;39.75;35.75;;;;;;;;5011080;28;8815;-75
2022/11/10 07:26:03;;;;;;;;;33.00;30.75;;;;;;;;5010840;28;8796;-76
2022/11/10 07:28:29;;;;;;;;;38.00;36.25;;;;;;;;5010664;28;8814;-78
2022/11/10 07:30:54;;;;;;;;;34.75;31.25;;;;;;;;5010821;28;8802;-76
2022/11/10 07:33:19;;;;;;;;;31.00;29.00;;;;;;;;5010933;28;8840;-75
2022/11/10 07:35:55;;;;;;;;;34.00;30.00;;;;;;;;5010853;28;8806;-75
2022/11/10 07:38:20;;;;;;;;;33.25;32.50;;;;;;;;5009395;28;8860;-75
2022/11/10 07:40:49;;;;;;;;;40.50;34.50;;;;;;;;5010703;28;11525;-79
2022/11/10 07:43:14;;;;;;;;;33.00;30.00;;;;;;;;5010714;28;8794;-75
2022/11/10 07:45:39;;;;;;;;;5.50;4.00;;;;;;;;5023514;28;11572;-75
2022/11/10 07:48:05;;;;;;;;;31.50;31.50;;;;;;;;5030374;28;8796;-75
2022/11/10 07:50:32;;;;;;;;;34.00;30.00;;;;;;;;5030357;28;8799;-76
2022/11/10 07:53:09;;;;;;;;;38.25;31.75;;;;;;;;5030148;28;11663;-80
2022/11/10 07:55:35;;;;;;;;;31.75;30.50;;;;;;;;5030248;28;11524;-79
2022/11/10 07:58:01;;;;;;;;;34.00;32.75;;;;;;;;5029983;28;11564;-76
2022/11/10 08:00:26;;;;;;;;;39.00;32.75;;;;;;;;5029920;28;11618;-78
2022/11/10 08:02:52;;;;;;;;;36.25;34.50;;;;;;;;5030192;28;8783;-78
2022/11/10 08:05:17;;;;;;;;;34.25;33.00;;;;;;;;5029024;28;8808;-76
2022/11/10 08:07:43;;;;;;;;;31.00;26.75;;;;;;;;5030175;28;8811;-76
2022/11/10 08:10:08;;;;;;;;;37.50;34.00;;;;;;;;5030116;28;8868;-79
2022/11/10 08:12:33;;;;;;;;;33.75;30.75;;;;;;;;5029933;28;8787;-77
2022/11/10 08:14:59;;;;;;;;;36.25;30.00;;;;;;;;5029845;28;8800;-80
2022/11/10 08:17:24;;;;;;;;;35.25;31.50;;;;;;;;5012974;28;8833;-84
2022/11/10 08:19:49;;;;;;;;;36.75;34.50;;;;;;;;5002538;28;8787;-83
2022/11/10 08:22:14;;;;;;;;;34.50;32.50;;;;;;;;5002856;28;8912;-75
2022/11/10 08:24:40;;;;;;;;;32.50;30.25;;;;;;;;5002159;28;8841;-74
2022/11/10 08:27:05;;;;;;;;;34.00;34.00;;;;;;;;5004034;28;8907;-75
2022/11/10 08:29:30;;;;;;;;;30.75;29.00;;;;;;;;5000332;28;9549;-75
2022/11/10 08:31:56;;;;;;;;;33.75;29.00;;;;;;;;5002663;28;8836;-75
2022/11/10 08:34:21;;;;;;;;;36.25;32.75;;;;;;;;5002435;28;8830;-75
2022/11/10 08:36:47;;;;;;;;;39.50;36.50;;;;;;;;5003332;28;8870;-74
2022/11/10 08:39:12;;;;;;;;;35.75;33.75;;;;;;;;5002063;28;8797;-76
2022/11/10 08:41:38;;;;;;;;;36.25;34.75;;;;;;;;5002201;28;8822;-77
2022/11/10 08:44:03;;;;;;;;;38.25;34.00;;;;;;;;5002943;28;8806;-78
2022/11/10 08:46:28;;;;;;;;;37.50;34.50;;;;;;;;5001471;28;8939;-76
2022/11/10 08:48:54;;;;;;;;;38.25;32.25;;;;;;;;5002809;28;8840;-82
2022/11/10 08:51:20;;;;;;;;;37.50;34.50;;;;;;;;5004578;28;9561;-79
2022/11/10 08:53:45;;;;;;;;;63.00;49.00;;;;;;;;5012940;28;8879;-83
2022/11/10 08:56:10;;;;;;;;;63.00;50.25;;;;;;;;5013211;28;11588;-84
2022/11/10 08:58:37;;;;;;;;;84.33;65.33;;;;;;;;5012213;28;8829;-84
2022/11/10 09:01:06;;;;;;;;;69.67;55.33;;;;;;;;5013508;28;8829;-84
2022/11/10 09:03:31;;;;;;;;;55.25;45.00;;;;;;;;5013587;28;8871;-84
2022/11/10 09:05:56;;;;;;;;;41.25;37.50;;;;;;;;5013252;28;11679;-84
2022/11/10 09:08:22;;;;;;;;;40.25;36.50;;;;;;;;5013173;28;8782;-83
2022/11/10 09:10:49;;;;;;;;;41.00;37.00;;;;;;;;5013136;28;8960;-82
2022/11/10 09:13:15;;;;;;;;;32.00;30.50;;;;;;;;5013002;28;8794;-84
2022/11/10 09:15:41;;;;;;;;;30.75;30.00;;;;;;;;5026362;28;11646;-84
2022/11/10 09:18:07;;;;;;;;;43.00;35.25;;;;;;;;5032850;28;8926;-84
2022/11/10 09:20:33;;;;;;;;;32.75;32.50;;;;;;;;5031425;28;8958;-83
2022/11/10 09:23:09;;;;;;;;;33.50;29.25;;;;;;;;5045908;23;8788;-68
2022/11/10 09:25:34;;;;;;;;;46.25;38.00;;;;;;;;4972046;28;11603;-69
2022/11/10 09:28:00;;;;;;;;;37.75;33.00;;;;;;;;4972602;28;11589;-69
2022/11/10 09:30:25;;;;;;;;;39.00;32.75;;;;;;;;4971827;28;8898;-70
2022/11/10 09:32:54;;;;;;;;;38.50;36.25;;;;;;;;4972626;28;8934;-70
2022/11/10 09:35:19;;;;;;;;;46.25;39.25;;;;;;;;4972552;28;8800;-69
2022/11/10 09:37:45;;;;;;;;;40.25;38.25;;;;;;;;4972283;28;11793;-70
2022/11/10 09:40:22;;;;;;;;;43.75;37.00;;;;;;;;4972346;28;9494;-69
2022/11/10 09:42:47;;;;;;;;;40.00;36.25;;;;;;;;4972693;28;8783;-69
2022/11/10 09:45:18;;;;;;;;;37.00;31.50;;;;;;;;4981575;28;11593;-70
2022/11/10 09:47:43;;;;;;;;;91.33;71.67;;;;;;;;4991315;28;8844;-69
2022/11/10 09:50:13;;;;;;;;;82.33;62.33;;;;;;;;4991598;28;8859;-69
2022/11/10 09:52:39;;;;;;;;;60.75;47.75;;;;;;;;4991758;28;8805;-69
2022/11/10 09:55:13;;;;;;;;;37.00;32.25;;;;;;;;4991627;28;11620;-69
2022/11/10 09:57:40;;;;;;;;;40.75;37.00;;;;;;;;4991355;28;8915;-69
2022/11/10 10:00:05;;;;;;;;;42.25;38.00;;;;;;;;4991064;28;11566;-69
2022/11/10 10:02:40;;;;;;;;;38.50;35.00;;;;;;;;4990884;28;11607;-69
2022/11/10 10:05:15;;;;;;;;;34.00;32.00;;;;;;;;4991581;28;8801;-69
2022/11/10 10:07:55;;;;;;;;;35.00;34.00;;;;;;;;4991162;28;11580;-69
2022/11/10 10:10:41;;;;;;;;;30.00;29.50;;;;;;;;4990975;28;11549;-70
2022/11/10 10:13:25;;;;;;;;;26.75;26.75;;;;;;;;4987142;28;12303;-69
2022/11/10 10:15:56;;;;;;;;;35.25;31.00;;;;;;;;4989399;28;11546;-69
2022/11/10 10:18:33;;;;;;;;;26.50;24.50;;;;;;;;4990597;28;11666;-69
2022/11/10 10:21:24;;;;;;;;;32.00;28.00;;;;;;;;4990701;28;11666;-70
2022/11/10 10:23:51;;;;;;;;;28.00;27.25;;;;;;;;4990990;28;12377;-70
2022/11/10 10:26:18;;;;;;;;;31.25;27.25;;;;;;;;4989513;28;11630;-69
2022/11/10 10:28:44;;;;;;;;;35.50;33.00;;;;;;;;4991137;28;11598;-69
2022/11/10 10:31:17;;;;;;;;;31.75;31.75;;;;;;;;4990454;28;11580;-69
2022/11/10 10:33:43;;;;;;;;;39.50;33.25;;;;;;;;4991049;28;12293;-68
2022/11/10 10:36:16;;;;;;;;;52.00;43.50;;;;;;;;4990620;28;11703;-68
2022/11/10 10:38:42;;;;;;;;;59.25;48.75;;;;;;;;4996626;28;8938;-69
2022/11/10 10:41:21;;;;;;;;;47.25;39.00;;;;;;;;4990255;28;11590;-69
2022/11/10 10:43:49;;;;;;;;;44.00;37.50;;;;;;;;4989124;28;11591;-69
2022/11/10 10:46:15;;;;;;;;;46.75;39.00;;;;;;;;4990148;28;11584;-69
2022/11/10 10:48:40;;;;;;;;;36.75;33.00;;;;;;;;4990491;28;11747;-69
2022/11/10 10:51:06;;;;;;;;;37.75;32.50;;;;;;;;4990357;28;12355;-69
2022/11/10 10:53:31;;;;;;;;;29.50;28.00;;;;;;;;4990292;28;8824;-69
2022/11/10 10:56:15;;;;;;;;;32.00;31.75;;;;;;;;4990210;28;8805;-69
2022/11/10 10:59:01;;;;;;;;;30.75;29.50;;;;;;;;4988897;28;8825;-69
2022/11/10 11:01:26;;;;;;;;;26.25;25.00;;;;;;;;4989807;28;11694;-70
2022/11/10 11:03:52;;;;;;;;;28.25;27.00;;;;;;;;4990248;28;11736;-69
2022/11/10 11:06:24;;;;;;;;;25.00;24.50;;;;;;;;4990015;28;8902;-69
2022/11/10 11:08:52;;;;;;;;;30.00;27.25;;;;;;;;4990076;28;8809;-70
2022/11/10 11:11:17;;;;;;;;;35.00;29.50;;;;;;;;4990179;28;11565;-69
2022/11/10 11:13:42;;;;;;;;;30.00;27.25;;;;;;;;4989432;28;11621;-69
2022/11/10 11:16:11;;;;;;;;;32.00;28.50;;;;;;;;4989763;28;8870;-69
2022/11/10 11:18:38;;;;;;;;;33.25;29.75;;;;;;;;4990094;28;8801;-69
2022/11/10 11:21:07;;;;;;;;;30.75;28.75;;;;;;;;4989929;28;12216;-69
2022/11/10 11:23:50;;;;;;;;;28.25;26.75;;;;;;;;4990599;28;11519;-69
2022/11/10 11:26:35;;;;;;;;;29.75;26.00;;;;;;;;4989772;28;11574;-69
2022/11/10 11:29:18;;;;;;;;;24.00;24.00;;;;;;;;4989480;28;11549;-68
2022/11/10 11:31:59;;;;;;;;;34.00;28.50;;;;;;;;4989575;28;12353;-70
2022/11/10 11:34:37;;;;;;;;;32.25;31.75;;;;;;;;4988529;28;12444;-70
2022/11/10 11:37:22;;;;;;;;;31.25;29.50;;;;;;;;4989694;28;11610;-70
2022/11/10 11:39:52;;;;;;;;;34.00;32.50;;;;;;;;4985502;28;12263;-69
2022/11/10 11:42:17;;;;;;;;;38.00;32.50;;;;;;;;4989624;28;11589;-69
2022/11/10 11:45:01;;;;;;;;;32.75;29.25;;;;;;;;4989670;28;12350;-69
2022/11/10 11:47:29;;;;;;;;;34.00;31.00;;;;;;;;4989357;28;8824;-70
2022/11/10 11:50:03;;;;;;;;;36.75;31.25;;;;;;;;4989724;28;12376;-70
2022/11/10 11:52:36;;;;;;;;;35.75;30.75;;;;;;;;4960207;28;11644;-70
2022/11/10 11:55:22;;;;;;;;;29.25;28.75;;;;;;;;4961598;28;11645;-69
2022/11/10 11:58:10;;;;;;;;;37.25;34.00;;;;;;;;4961651;28;11704;-68
2022/11/10 12:00:41;;;;;;;;;35.25;33.50;;;;;;;;4959024;28;11618;-68
2022/11/10 12:03:19;;;;;;;;;37.75;34.25;;;;;;;;4963151;28;11564;-69
2022/11/10 12:05:50;;;;;;;;;35.00;31.50;;;;;;;;4958681;28;11634;-67
2022/11/10 12:08:22;;;;;;;;;32.75;26.75;;;;;;;;4960423;28;11622;-68
2022/11/10 12:10:50;;;;;;;;;35.75;31.25;;;;;;;;4959837;28;11661;-68
2022/11/10 12:13:18;;;;;;;;;30.00;29.50;;;;;;;;4960962;28;11586;-68
2022/11/10 12:15:53;;;;;;;;;35.25;33.50;;;;;;;;4967547;28;11836;-68
2022/11/10 12:18:41;;;;;;;;;36.75;34.50;;;;;;;;4964682;28;11617;-69
2022/11/10 12:21:07;;;;;;;;;36.00;32.50;;;;;;;;4963502;28;11634;-68
2022/11/10 12:23:47;;;;;;;;;32.25;32.00;;;;;;;;4962763;28;11765;-67
2022/11/10 12:26:21;;;;;;;;;33.25;32.50;;;;;;;;4962329;28;8835;-68
2022/11/10 12:28:52;;;;;;;;;35.00;32.75;;;;;;;;4963316;28;11610;-68
2022/11/10 12:31:20;;;;;;;;;37.75;35.25;;;;;;;;4970597;28;12369;-68
2022/11/10 12:34:07;;;;;;;;;40.00;35.00;;;;;;;;4963197;28;11606;-68
2022/11/10 12:36:33;;;;;;;;;37.25;33.75;;;;;;;;4964277;28;11681;-66
2022/11/10 12:39:12;;;;;;;;;38.00;34.50;;;;;;;;4962324;28;11596;-66
2022/11/10 12:41:57;;;;;;;;;35.75;34.25;;;;;;;;4962578;28;8778;-68
2022/11/10 12:44:27;;;;;;;;;35.00;31.25;;;;;;;;4964236;28;12443;-68
2022/11/10 12:46:54;;;;;;;;;39.25;32.50;;;;;;;;4962694;28;11693;-67
2022/11/10 12:49:27;;;;;;;;;35.00;33.75;;;;;;;;4963897;28;11632;-68
2022/11/10 12:52:08;;;;;;;;;35.00;31.75;;;;;;;;4962681;28;12378;-69
2022/11/10 12:54:33;;;;;;;;;39.75;37.00;;;;;;;;4961247;28;11571;-68
2022/11/10 12:57:03;;;;;;;;;42.25;35.00;;;;;;;;4971923;28;11743;-68
2022/11/10 12:59:33;;;;;;;;;38.50;33.75;;;;;;;;4961468;28;8835;-69
2022/11/10 13:02:01;;;;;;;;;38.75;34.00;;;;;;;;4963753;28;11704;-68
2022/11/10 13:04:26;;;;;;;;;36.25;31.75;;;;;;;;4961779;28;11597;-68
2022/11/10 13:06:54;;;;;;;;;34.25;33.25;;;;;;;;4962243;28;11648;-67
2022/11/10 13:09:31;;;;;;;;;31.50;31.00;;;;;;;;4961264;28;8796;-68
2022/11/10 13:12:14;;;;;;;;;37.75;33.75;;;;;;;;4961983;28;12353;-68
2022/11/10 13:14:40;;;;;;;;;39.50;35.50;;;;;;;;4964419;28;11672;-67
2022/11/10 13:17:05;;;;;;;;;34.50;31.00;;;;;;;;4962639;28;11765;-68
2022/11/10 13:19:33;;;;;;;;;35.25;32.50;;;;;;;;4961800;28;8866;-68
2022/11/10 13:21:59;;;;;;;;;32.75;32.25;;;;;;;;4962080;28;8810;-67
2022/11/10 13:24:25;;;;;;;;;33.50;31.00;;;;;;;;4962558;28;11712;-68
2022/11/10 13:26:54;;;;;;;;;32.00;31.25;;;;;;;;4963395;28;8928;-68
2022/11/10 13:29:27;;;;;;;;;36.25;31.50;;;;;;;;4972669;28;11594;-68
2022/11/10 13:31:53;;;;;;;;;35.00;30.75;;;;;;;;4969337;28;11606;-68
2022/11/10 13:34:18;;;;;;;;;33.75;33.75;;;;;;;;4961455;28;11614;-69
2022/11/10 13:36:45;;;;;;;;;32.00;28.50;;;;;;;;4963260;28;11590;-69
2022/11/10 13:39:19;;;;;;;;;32.75;27.50;;;;;;;;4961902;28;8925;-69
2022/11/10 13:41:50;;;;;;;;;32.00;31.25;;;;;;;;4961379;28;11604;-69
2022/11/10 13:44:19;;;;;;;;;26.75;26.25;;;;;;;;4965384;28;11543;-68
2022/11/10 13:47:08;;;;;;;;;35.50;33.25;;;;;;;;4963453;28;11541;-69
2022/11/10 13:49:48;;;;;;;;;36.50;29.00;;;;;;;;4961999;28;11718;-68
2022/11/10 13:52:18;;;;;;;;;29.50;26.50;;;;;;;;4960556;28;11555;-68
2022/11/10 13:54:43;;;;;;;;;31.00;24.75;;;;;;;;4963095;28;11589;-69
2022/11/10 13:57:11;;;;;;;;;29.75;26.00;;;;;;;;4961302;28;11838;-70
2022/11/10 13:59:56;;;;;;;;;33.25;29.25;;;;;;;;4961688;28;8887;-69
2022/11/10 14:02:37;;;;;;;;;26.25;26.25;;;;;;;;4960192;28;12305;-69
2022/11/10 14:05:07;;;;;;;;;32.50;28.75;;;;;;;;4960644;28;11723;-69
2022/11/10 14:07:37;;;;;;;;;31.50;29.00;;;;;;;;4960330;28;11624;-69
2022/11/10 14:10:03;;;;;;;;;33.00;30.75;;;;;;;;4962391;28;11596;-69
2022/11/10 14:12:34;;;;;;;;;30.50;30.50;;;;;;;;4967895;28;11556;-70
2022/11/10 14:14:59;;;;;;;;;29.00;29.00;;;;;;;;4965731;28;11607;-69
2022/11/10 14:17:26;;;;;;;;;19.25;19.25;;;;;;;;4957153;28;11616;-68
2022/11/10 14:19:51;;;;;;;;;32.75;32.00;;;;;;;;4960757;28;8844;-69
2022/11/10 14:22:29;;;;;;;;;21.75;16.75;;;;;;;;4966035;28;11525;-69
2022/11/10 14:25:05;;;;;;;;;25.50;23.75;;;;;;;;4972400;28;8896;-70
2022/11/10 14:27:32;;;;;;;;;24.00;20.25;;;;;;;;4965119;28;11651;-68
2022/11/10 14:30:19;;;;;;;;;24.75;20.75;;;;;;;;4963024;28;11680;-69
2022/11/10 14:32:44;;;;;;;;;23.00;21.50;;;;;;;;4955709;28;11524;-69
2022/11/10 14:35:18;;;;;;;;;19.25;19.25;;;;;;;;4965575;28;11680;-69
2022/11/10 14:37:43;;;;;;;;;22.25;22.25;;;;;;;;4954714;28;8830;-68
2022/11/10 14:40:13;;;;;;;;;25.25;19.25;;;;;;;;4957645;28;11299;-67
2022/11/10 14:42:38;;;;;;;;;24.50;24.00;;;;;;;;4961173;28;8827;-69
2022/11/10 14:45:14;;;;;;;;;23.75;20.50;;;;;;;;4973236;28;12374;-69
2022/11/10 14:47:39;;;;;;;;;21.75;19.00;;;;;;;;4988974;28;8825;-69